createdAt,value
2019-04-18T00:00:41.018Z,0
2019-04-18T00:01:42.580Z,0
2019-04-18T00:02:44.402Z,0
2019-04-18T00:04:04.152Z,0
2019-04-18T00:04:43.205Z,0
2019-04-18T00:05:40.941Z,0
2019-04-18T00:06:40.931Z,0
2019-04-18T00:07:40.903Z,0
2019-04-18T00:08:40.904Z,0
2019-04-18T00:09:42.936Z,0
2019-04-18T00:10:40.875Z,0
2019-04-18T00:11:40.951Z,0
2019-04-18T00:12:40.837Z,0
2019-04-18T00:13:40.814Z,0
2019-04-18T00:14:56.544Z,0
2019-04-18T00:15:46.477Z,0
2019-04-18T00:16:40.285Z,0
2019-04-18T00:17:40.506Z,0
2019-04-18T00:18:45.786Z,0
2019-04-18T00:19:42.945Z,0
2019-04-18T00:20:40.862Z,0
2019-04-18T00:21:40.698Z,0
2019-04-18T00:22:40.438Z,0
2019-04-18T00:23:40.662Z,0
2019-04-18T00:24:41.749Z,0
2019-04-18T00:25:42.125Z,0
2019-04-18T00:26:45.809Z,0
2019-04-18T00:27:40.614Z,0
2019-04-18T00:28:40.597Z,0
2019-04-18T00:29:40.577Z,0
2019-04-18T00:30:40.578Z,0
2019-04-18T00:31:43.038Z,0
2019-04-18T00:32:45.098Z,0
2019-04-18T00:33:40.522Z,0
2019-04-18T00:34:45.348Z,0
2019-04-18T00:35:44.091Z,0
2019-04-18T00:36:40.236Z,0
2019-04-18T00:37:40.259Z,0
2019-04-18T00:38:40.449Z,0
2019-04-18T00:39:44.259Z,0
2019-04-18T00:40:45.545Z,0
2019-04-18T00:41:40.402Z,0
2019-04-18T00:42:40.393Z,0
2019-04-18T00:43:40.368Z,0
2019-04-18T00:44:43.526Z,0
2019-04-18T00:45:45.863Z,0
2019-04-18T00:46:40.328Z,0
2019-04-18T00:47:40.066Z,0
2019-04-18T00:48:40.301Z,0
2019-04-18T00:49:41.266Z,0
2019-04-18T00:50:40.269Z,0
2019-04-18T00:51:43.875Z,0
2019-04-18T00:52:40.273Z,0
2019-04-18T00:53:39.972Z,0
2019-04-18T00:54:39.953Z,0
2019-04-18T00:55:40.188Z,0
2019-04-18T00:56:42.405Z,0
2019-04-18T00:57:40.196Z,0
2019-04-18T00:58:40.150Z,0
2019-04-18T00:59:40.130Z,0
2019-04-18T01:00:44.668Z,0
2019-04-18T01:01:41.701Z,0
2019-04-18T01:02:40.079Z,0
2019-04-18T01:03:40.071Z,0
2019-04-18T01:04:41.319Z,0
2019-04-18T01:05:42.381Z,0
2019-04-18T01:06:40.020Z,0
2019-04-18T01:07:40.002Z,0
2019-04-18T01:08:39.988Z,0
2019-04-18T01:09:39.722Z,0
2019-04-18T01:10:39.972Z,0
2019-04-18T01:11:39.953Z,0
2019-04-18T01:12:39.734Z,0
2019-04-18T01:13:43.252Z,0
2019-04-18T01:14:39.899Z,0
2019-04-18T01:15:39.890Z,0
2019-04-18T01:16:39.879Z,0
2019-04-18T01:17:43.704Z,0
2019-04-18T01:18:39.841Z,0
2019-04-18T01:19:39.832Z,0
2019-04-18T01:20:39.828Z,0
2019-04-18T01:21:44.605Z,0
2019-04-18T01:22:39.787Z,0
2019-04-18T01:23:39.763Z,0
2019-04-18T01:24:39.744Z,0
2019-04-18T01:25:43.719Z,0
2019-04-18T01:26:45.317Z,0
2019-04-18T01:27:39.700Z,0
2019-04-18T01:28:39.691Z,0
2019-04-18T01:29:39.673Z,0
2019-04-18T01:30:39.682Z,0
2019-04-18T01:31:39.640Z,0
2019-04-18T01:32:39.635Z,0
2019-04-18T01:33:41.964Z,0
2019-04-18T01:34:53.635Z,0
2019-04-18T01:35:39.327Z,0
2019-04-18T01:36:39.559Z,0
2019-04-18T01:37:41.527Z,0
2019-04-18T01:38:42.252Z,0
2019-04-18T01:39:39.515Z,0
2019-04-18T01:40:39.255Z,0
2019-04-18T01:41:39.483Z,0
2019-04-18T01:42:39.463Z,0
2019-04-18T01:43:42.290Z,0
2019-04-18T01:44:39.445Z,0
2019-04-18T01:45:39.191Z,0
2019-04-18T01:46:39.411Z,0
2019-04-18T01:47:39.410Z,0
2019-04-18T01:48:42.200Z,0
2019-04-18T01:49:43.345Z,0
2019-04-18T01:50:39.349Z,0
2019-04-18T01:51:39.091Z,0
2019-04-18T01:52:39.323Z,0
2019-04-18T01:53:40.792Z,0
2019-04-18T01:54:40.938Z,0
2019-04-18T01:55:39.035Z,0
2019-04-18T01:56:39.005Z,0
2019-04-18T01:57:38.757Z,0
2019-04-18T01:58:41.203Z,0
2019-04-18T01:59:41.137Z,0
2019-04-18T02:00:38.942Z,0
2019-04-18T02:01:39.179Z,0
2019-04-18T02:02:39.163Z,0
2019-04-18T02:03:40.969Z,0
2019-04-18T02:04:41.077Z,0
2019-04-18T02:05:39.253Z,0
2019-04-18T02:06:41.338Z,0
2019-04-18T02:07:39.079Z,0
2019-04-18T02:08:39.070Z,0
2019-04-18T02:09:39.354Z,0
2019-04-18T02:10:39.038Z,0
2019-04-18T02:11:42.974Z,0
2019-04-18T02:12:39.004Z,0
2019-04-18T02:13:38.989Z,0
2019-04-18T02:14:38.975Z,0
2019-04-18T02:15:40.090Z,0
2019-04-18T02:16:40.225Z,0
2019-04-18T02:17:38.685Z,0
2019-04-18T02:18:38.908Z,0
2019-04-18T02:19:38.895Z,0
2019-04-18T02:20:41.919Z,0
2019-04-18T02:21:41.848Z,0
2019-04-18T02:22:38.610Z,0
2019-04-18T02:23:38.583Z,0
2019-04-18T02:24:38.819Z,0
2019-04-18T02:25:48.957Z,0
2019-04-18T02:26:38.785Z,0
2019-04-18T02:27:38.523Z,0
2019-04-18T02:28:38.909Z,0
2019-04-18T02:29:42.578Z,0
2019-04-18T02:30:38.746Z,0
2019-04-18T02:31:38.706Z,0
2019-04-18T02:32:41.138Z,0
2019-04-18T02:33:38.435Z,0
2019-04-18T02:34:38.672Z,0
2019-04-18T02:35:38.652Z,0
2019-04-18T02:36:42.234Z,0
2019-04-18T02:37:38.621Z,0
2019-04-18T02:38:38.599Z,0
2019-04-18T02:39:38.099Z,0
2019-04-18T02:40:41.579Z,0
2019-04-18T02:41:39.966Z,0
2019-04-18T02:42:38.543Z,0
2019-04-18T02:43:38.523Z,0
2019-04-18T02:44:38.509Z,0
2019-04-18T02:45:42.000Z,0
2019-04-18T02:46:38.252Z,0
2019-04-18T02:47:38.555Z,0
2019-04-18T02:48:38.455Z,0
2019-04-18T02:49:39.176Z,0
2019-04-18T02:50:42.050Z,0
2019-04-18T02:51:38.400Z,0
2019-04-18T02:52:38.407Z,0
2019-04-18T02:53:40.064Z,0
2019-04-18T02:54:41.142Z,0
2019-04-18T02:55:38.345Z,0
2019-04-18T02:56:38.335Z,0
2019-04-18T02:57:39.218Z,0
2019-04-18T02:58:43.410Z,0
2019-04-18T02:59:38.025Z,0
2019-04-18T03:00:38.257Z,0
2019-04-18T03:01:38.238Z,0
2019-04-18T03:02:41.560Z,0
2019-04-18T03:03:41.088Z,0
2019-04-18T03:04:38.190Z,0
2019-04-18T03:05:44.141Z,0
2019-04-18T03:06:38.162Z,0
2019-04-18T03:07:37.893Z,0
2019-04-18T03:08:38.135Z,0
2019-04-18T03:09:40.937Z,0
2019-04-18T03:10:40.742Z,0
2019-04-18T03:11:38.076Z,0
2019-04-18T03:12:38.065Z,0
2019-04-18T03:13:42.701Z,0
2019-04-18T03:14:39.964Z,0
2019-04-18T03:15:38.018Z,0
2019-04-18T03:16:38.003Z,0
2019-04-18T03:17:38.013Z,0
2019-04-18T03:18:42.694Z,0
2019-04-18T03:19:37.953Z,0
2019-04-18T03:20:37.939Z,0
2019-04-18T03:21:37.924Z,0
2019-04-18T03:22:38.710Z,0
2019-04-18T03:23:41.973Z,0
2019-04-18T03:24:37.878Z,0
2019-04-18T03:25:37.622Z,0
2019-04-18T03:26:37.848Z,0
2019-04-18T03:27:39.356Z,0
2019-04-18T03:28:37.805Z,0
2019-04-18T03:29:37.552Z,0
2019-04-18T03:30:39.675Z,0
2019-04-18T03:31:37.783Z,0
2019-04-18T03:32:43.998Z,0
2019-04-18T03:33:37.759Z,0
2019-04-18T03:34:39.835Z,0
2019-04-18T03:35:58.544Z,0
2019-04-18T03:36:37.683Z,0
2019-04-18T03:37:41.861Z,0
2019-04-18T03:38:37.657Z,4
2019-04-18T03:39:37.637Z,4
2019-04-18T03:40:37.626Z,0
2019-04-18T03:41:38.029Z,4
2019-04-18T03:42:40.204Z,4
2019-04-18T03:43:39.168Z,4
2019-04-18T03:44:37.309Z,4
2019-04-18T03:45:37.318Z,4
2019-04-18T03:46:37.276Z,4
2019-04-18T03:47:38.645Z,4
2019-04-18T03:48:41.154Z,8
2019-04-18T03:49:40.082Z,8
2019-04-18T03:50:37.225Z,12
2019-04-18T03:51:37.450Z,12
2019-04-18T03:52:37.183Z,16
2019-04-18T03:53:39.825Z,20
2019-04-18T03:54:38.888Z,20
2019-04-18T03:55:37.393Z,28
2019-04-18T03:56:37.371Z,28
2019-04-18T03:57:40.409Z,36
2019-04-18T03:58:38.952Z,40
2019-04-18T03:59:37.319Z,44
2019-04-18T04:00:37.062Z,52
2019-04-18T04:01:37.703Z,56
2019-04-18T04:02:42.979Z,68
2019-04-18T04:03:36.784Z,76
2019-04-18T04:04:37.233Z,84
2019-04-18T04:05:37.218Z,96
2019-04-18T04:06:37.205Z,108
2019-04-18T04:07:37.202Z,120
2019-04-18T04:08:38.907Z,136
2019-04-18T04:09:39.855Z,148
2019-04-18T04:10:37.165Z,164
2019-04-18T04:11:36.873Z,180
2019-04-18T04:12:37.105Z,196
2019-04-18T04:13:40.800Z,216
2019-04-18T04:14:40.578Z,236
2019-04-18T04:15:37.057Z,256
2019-04-18T04:16:38.375Z,280
2019-04-18T04:17:36.926Z,300
2019-04-18T04:18:38.737Z,324
2019-04-18T04:19:37.002Z,348
2019-04-18T04:20:36.989Z,372
2019-04-18T04:21:38.175Z,404
2019-04-18T04:22:36.951Z,428
2019-04-18T04:23:36.929Z,456
2019-04-18T04:24:36.922Z,480
2019-04-18T04:25:36.930Z,508
2019-04-18T04:26:36.640Z,536
2019-04-18T04:27:36.864Z,564
2019-04-18T04:28:36.850Z,592
2019-04-18T04:29:44.141Z,624
2019-04-18T04:30:36.577Z,656
2019-04-18T04:31:37.187Z,692
2019-04-18T04:32:36.944Z,728
2019-04-18T04:33:44.762Z,764
2019-04-18T04:34:36.549Z,796
2019-04-18T04:35:36.740Z,832
2019-04-18T04:36:39.822Z,872
2019-04-18T04:37:49.571Z,912
2019-04-18T04:38:36.701Z,940
2019-04-18T04:39:38.980Z,976
2019-04-18T04:40:37.169Z,1008
2019-04-18T04:41:41.135Z,1048
2019-04-18T04:42:36.633Z,1080
2019-04-18T04:43:36.617Z,1116
2019-04-18T04:44:36.347Z,1152
2019-04-18T04:45:39.095Z,1184
2019-04-18T04:46:43.681Z,1216
2019-04-18T04:47:36.566Z,1248
2019-04-18T04:48:36.533Z,1280
2019-04-18T04:49:38.958Z,1316
2019-04-18T04:50:40.948Z,1344
2019-04-18T04:51:36.533Z,1368
2019-04-18T04:52:36.498Z,1396
2019-04-18T04:53:40.031Z,1428
2019-04-18T04:54:40.411Z,1452
2019-04-18T04:55:36.423Z,1480
2019-04-18T04:56:38.221Z,1512
2019-04-18T04:57:36.399Z,1544
2019-04-18T04:58:40.357Z,1576
2019-04-18T04:59:38.767Z,1604
2019-04-18T05:00:36.356Z,1632
2019-04-18T05:01:37.367Z,1664
2019-04-18T05:02:40.431Z,1692
2019-04-18T05:03:38.780Z,1720
2019-04-18T05:04:36.286Z,1748
2019-04-18T05:05:37.283Z,1776
2019-04-18T05:06:48.250Z,1808
2019-04-18T05:07:35.993Z,1828
2019-04-18T05:08:36.956Z,1856
2019-04-18T05:09:45.615Z,1888
2019-04-18T05:10:35.946Z,1904
2019-04-18T05:11:36.168Z,1932
2019-04-18T05:12:36.430Z,1964
2019-04-18T05:13:36.263Z,1984
2019-04-18T05:14:38.784Z,2016
2019-04-18T05:15:36.115Z,2052
2019-04-18T05:16:37.037Z,2080
2019-04-18T05:17:36.078Z,2100
2019-04-18T05:18:35.816Z,2120
2019-04-18T05:19:36.045Z,2136
2019-04-18T05:20:35.777Z,2160
2019-04-18T05:21:41.649Z,2188
2019-04-18T05:22:36.049Z,2212
2019-04-18T05:23:36.005Z,2244
2019-04-18T05:24:35.998Z,2272
2019-04-18T05:25:35.957Z,2288
2019-04-18T05:26:35.953Z,2316
2019-04-18T05:27:36.632Z,2340
2019-04-18T05:28:35.904Z,2356
2019-04-18T05:29:39.339Z,2368
2019-04-18T05:30:39.493Z,2392
2019-04-18T05:31:39.613Z,2412
2019-04-18T05:32:37.107Z,2436
2019-04-18T05:33:37.925Z,2460
2019-04-18T05:34:35.820Z,2480
2019-04-18T05:35:35.557Z,2500
2019-04-18T05:36:57.210Z,2520
2019-04-18T05:37:35.812Z,2536
2019-04-18T05:38:35.504Z,2556
2019-04-18T05:39:38.515Z,2572
2019-04-18T05:40:40.896Z,2592
2019-04-18T05:41:35.712Z,2604
2019-04-18T05:42:35.687Z,2612
2019-04-18T05:43:37.798Z,2636
2019-04-18T05:44:41.901Z,2648
2019-04-18T05:45:35.671Z,2656
2019-04-18T05:46:35.616Z,2672
2019-04-18T05:47:35.611Z,2680
2019-04-18T05:48:41.624Z,2692
2019-04-18T05:49:40.340Z,2704
2019-04-18T05:50:35.322Z,2716
2019-04-18T05:51:38.732Z,2732
2019-04-18T05:52:35.282Z,2748
2019-04-18T05:53:39.649Z,2760
2019-04-18T05:54:35.505Z,2764
2019-04-18T05:55:35.501Z,2784
2019-04-18T05:56:36.065Z,2800
2019-04-18T05:57:40.623Z,2820
2019-04-18T05:58:35.475Z,2824
2019-04-18T05:59:35.459Z,2832
2019-04-18T06:00:38.953Z,2848
2019-04-18T06:01:43.721Z,2868
2019-04-18T06:02:35.465Z,2872
2019-04-18T06:03:35.147Z,2868
2019-04-18T06:04:38.389Z,2884
2019-04-18T06:05:39.505Z,2896
2019-04-18T06:06:35.339Z,2912
2019-04-18T06:07:34.618Z,2928
2019-04-18T06:08:38.872Z,2936
2019-04-18T06:09:42.670Z,2944
2019-04-18T06:10:35.015Z,2940
2019-04-18T06:11:35.267Z,2964
2019-04-18T06:12:38.936Z,2992
2019-04-18T06:13:34.985Z,3012
2019-04-18T06:14:37.754Z,3036
2019-04-18T06:15:35.228Z,3052
2019-04-18T06:16:36.431Z,3084
2019-04-18T06:17:39.567Z,3044
2019-04-18T06:18:35.156Z,3036
2019-04-18T06:19:35.157Z,3080
2019-04-18T06:20:40.743Z,3096
2019-04-18T06:21:37.929Z,3052
2019-04-18T06:22:34.607Z,3064
2019-04-18T06:23:35.250Z,3080
2019-04-18T06:24:40.737Z,3076
2019-04-18T06:25:34.824Z,3080
2019-04-18T06:26:38.552Z,3096
2019-04-18T06:27:36.934Z,3104
2019-04-18T06:28:35.010Z,3104
2019-04-18T06:29:34.989Z,3104
2019-04-18T06:30:35.091Z,3120
2019-04-18T06:31:34.990Z,3140
2019-04-18T06:32:34.959Z,3180
2019-04-18T06:33:42.753Z,3164
2019-04-18T06:34:40.351Z,3176
2019-04-18T06:35:34.438Z,3188
2019-04-18T06:36:36.644Z,3228
2019-04-18T06:37:48.032Z,3348
2019-04-18T06:38:37.847Z,3672
2019-04-18T06:39:34.866Z,4556
2019-04-18T06:40:39.752Z,8396
2019-04-18T06:41:38.932Z,10956
2019-04-18T06:42:34.840Z,9284
2019-04-18T06:43:34.830Z,6752
2019-04-18T06:44:39.851Z,10324
2019-04-18T06:45:37.672Z,12400
2019-04-18T06:46:34.786Z,12316
2019-04-18T06:47:38.982Z,12812
2019-04-18T06:48:40.412Z,13684
2019-04-18T06:49:34.486Z,13796
2019-04-18T06:50:34.740Z,14060
2019-04-18T06:51:37.134Z,15112
2019-04-18T06:52:42.547Z,17088
2019-04-18T06:53:34.687Z,18496
2019-04-18T06:54:40.838Z,18944
2019-04-18T06:55:40.862Z,19968
2019-04-18T06:56:34.655Z,20672
2019-04-18T06:57:34.652Z,21856
2019-04-18T06:58:52.084Z,27744
2019-04-18T06:59:34.398Z,33408
2019-04-18T07:00:36.927Z,40928
2019-04-18T07:01:39.295Z,44288
2019-04-18T07:02:34.629Z,44224
2019-04-18T07:03:34.601Z,40832
2019-04-18T07:04:35.959Z,37536
2019-04-18T07:05:39.443Z,33248
2019-04-18T07:06:45.902Z,36640
2019-04-18T07:07:45.455Z,36352
2019-04-18T07:08:48.536Z,24640
2019-04-18T07:09:57.735Z,9160
2019-04-18T07:10:34.562Z,6000
2019-04-18T07:11:40.506Z,5280
2019-04-18T07:12:34.564Z,4960
2019-04-18T07:13:37.291Z,4720
2019-04-18T07:14:37.658Z,4556
2019-04-18T07:15:39.130Z,4428
2019-04-18T07:16:34.525Z,4340
2019-04-18T07:17:34.530Z,4280
2019-04-18T07:18:39.631Z,4220
2019-04-18T07:19:39.288Z,4152
2019-04-18T07:20:34.515Z,4096
2019-04-18T07:21:39.383Z,4076
2019-04-18T07:22:39.332Z,4064
2019-04-18T07:23:34.496Z,4048
2019-04-18T07:24:34.509Z,4048
2019-04-18T07:25:36.913Z,4044
2019-04-18T07:26:34.247Z,4056
2019-04-18T07:27:34.499Z,4060
2019-04-18T07:28:50.714Z,4056
2019-04-18T07:29:36.379Z,4048
2019-04-18T07:30:38.377Z,4040
2019-04-18T07:31:39.291Z,4044
2019-04-18T07:32:34.476Z,4056
2019-04-18T07:33:34.472Z,4048
2019-04-18T07:34:34.228Z,4040
2019-04-18T07:35:34.224Z,4036
2019-04-18T07:36:35.846Z,4052
2019-04-18T07:37:34.216Z,4048
2019-04-18T07:38:38.922Z,4040
2019-04-18T07:39:40.537Z,4016
2019-04-18T07:40:34.209Z,3996
2019-04-18T07:41:34.457Z,3988
2019-04-18T07:42:34.199Z,3968
2019-04-18T07:43:34.445Z,3960
2019-04-18T07:44:34.183Z,3940
2019-04-18T07:45:34.195Z,3944
2019-04-18T07:46:36.926Z,3948
2019-04-18T07:47:41.187Z,3960
2019-04-18T07:48:37.513Z,3960
2019-04-18T07:49:34.175Z,3964
2019-04-18T07:50:34.410Z,3980
2019-04-18T07:51:34.172Z,3980
2019-04-18T07:52:34.172Z,3992
2019-04-18T07:53:34.393Z,4000
2019-04-18T07:54:34.395Z,4012
2019-04-18T07:55:38.464Z,4000
2019-04-18T07:56:34.380Z,3984
2019-04-18T07:57:34.378Z,3968
2019-04-18T07:58:40.074Z,3960
2019-04-18T07:59:34.359Z,3960
2019-04-18T08:00:34.367Z,3956
2019-04-18T08:01:35.874Z,3936
2019-04-18T08:02:38.100Z,3936
2019-04-18T08:04:15.374Z,3916
2019-04-18T08:04:34.335Z,3912
2019-04-18T08:05:34.084Z,3904
2019-04-18T08:06:34.082Z,3896
2019-04-18T08:07:34.340Z,3888
2019-04-18T08:08:34.308Z,3892
2019-04-18T08:09:41.018Z,3892
2019-04-18T08:10:33.600Z,3892
2019-04-18T08:11:38.988Z,3876
2019-04-18T08:12:40.003Z,3872
2019-04-18T08:13:34.304Z,3864
2019-04-18T08:14:34.031Z,3860
2019-04-18T08:15:34.274Z,3864
2019-04-18T08:16:34.283Z,3836
2019-04-18T08:17:34.256Z,3808
2019-04-18T08:18:35.092Z,3808
2019-04-18T08:19:34.275Z,3812
2019-04-18T08:20:33.755Z,3780
2019-04-18T08:21:33.992Z,3744
2019-04-18T08:22:34.237Z,3732
2019-04-18T08:23:44.411Z,3716
2019-04-18T08:24:34.235Z,3704
2019-04-18T08:25:34.217Z,3700
2019-04-18T08:26:37.283Z,3672
2019-04-18T08:27:38.250Z,3684
2019-04-18T08:28:34.202Z,3688
2019-04-18T08:29:35.258Z,3672
2019-04-18T08:30:39.040Z,3644
2019-04-18T08:31:38.944Z,3664
2019-04-18T08:32:34.178Z,3680
2019-04-18T08:33:34.173Z,3680
2019-04-18T08:34:34.179Z,3680
2019-04-18T08:35:34.163Z,3680
2019-04-18T08:36:34.160Z,3708
2019-04-18T08:37:34.150Z,3692
2019-04-18T08:38:41.716Z,3692
2019-04-18T08:39:34.140Z,3692
2019-04-18T08:40:33.889Z,3680
2019-04-18T08:41:36.127Z,3676
2019-04-18T08:42:36.136Z,3684
2019-04-18T08:43:34.116Z,3668
2019-04-18T08:44:34.131Z,3672
2019-04-18T08:45:35.795Z,3668
2019-04-18T08:46:37.489Z,3644
2019-04-18T08:47:33.847Z,3632
2019-04-18T08:48:34.090Z,3640
2019-04-18T08:49:39.201Z,3636
2019-04-18T08:50:33.831Z,3628
2019-04-18T08:51:34.077Z,3620
2019-04-18T08:52:33.817Z,3608
2019-04-18T08:53:50.153Z,3596
2019-04-18T08:54:33.819Z,3616
2019-04-18T08:55:34.052Z,3632
2019-04-18T08:56:39.995Z,3628
2019-04-18T08:57:34.041Z,3620
2019-04-18T08:58:36.898Z,3616
2019-04-18T08:59:49.578Z,3608
2019-04-18T09:00:34.026Z,3600
2019-04-18T09:01:33.771Z,3584
2019-04-18T09:02:34.014Z,3576
2019-04-18T09:03:41.212Z,3564
2019-04-18T09:04:34.097Z,3560
2019-04-18T09:05:39.749Z,3544
2019-04-18T09:06:42.686Z,3512
2019-04-18T09:07:41.458Z,3492
2019-04-18T09:08:36.005Z,3488
2019-04-18T09:09:38.200Z,3472
2019-04-18T09:10:35.885Z,3460
2019-04-18T09:11:36.466Z,3452
2019-04-18T09:12:40.896Z,3440
2019-04-18T09:14:04.544Z,3428
2019-04-18T09:14:35.413Z,3420
2019-04-18T09:15:35.870Z,3452
2019-04-18T09:16:34.980Z,3468
2019-04-18T09:17:39.928Z,3460
2019-04-18T09:18:35.278Z,3472
2019-04-18T09:19:35.728Z,3488
2019-04-18T09:20:41.472Z,3484
2019-04-18T09:21:36.307Z,3444
2019-04-18T09:22:39.420Z,3388
2019-04-18T09:23:38.241Z,3372
2019-04-18T09:24:35.026Z,3388
2019-04-18T09:25:36.039Z,3404
2019-04-18T09:26:38.652Z,3388
2019-04-18T09:27:33.897Z,3408
2019-04-18T09:28:54.551Z,3420
2019-04-18T09:29:33.625Z,3428
2019-04-18T09:30:33.629Z,3432
2019-04-18T09:31:33.877Z,3428
2019-04-18T09:32:33.869Z,3412
2019-04-18T09:33:35.347Z,3392
2019-04-18T09:34:39.622Z,3376
2019-04-18T09:35:58.389Z,3368
2019-04-18T09:36:37.734Z,3364
2019-04-18T09:37:33.836Z,3348
2019-04-18T09:38:36.662Z,3328
2019-04-18T09:39:33.823Z,3320
2019-04-18T09:40:36.479Z,3308
2019-04-18T09:41:37.004Z,3316
2019-04-18T09:42:33.821Z,3328
2019-04-18T09:43:33.809Z,3328
2019-04-18T09:44:33.566Z,3336
2019-04-18T09:45:40.473Z,3340
2019-04-18T09:46:33.792Z,3344
2019-04-18T09:47:33.801Z,3352
2019-04-18T09:48:37.466Z,3356
2019-04-18T09:49:38.161Z,3356
2019-04-18T09:50:33.769Z,3340
2019-04-18T09:51:34.278Z,3328
2019-04-18T09:52:36.149Z,3332
2019-04-18T09:53:35.512Z,3340
2019-04-18T09:54:37.367Z,3324
2019-04-18T09:55:33.748Z,3344
2019-04-18T09:56:33.839Z,3344
2019-04-18T09:57:33.495Z,3316
2019-04-18T09:58:33.731Z,3320
2019-04-18T09:59:34.093Z,3296
2019-04-18T10:00:33.532Z,3288
2019-04-18T10:01:33.725Z,3296
2019-04-18T10:02:35.624Z,3288
2019-04-18T10:03:37.722Z,3284
2019-04-18T10:04:33.697Z,3308
2019-04-18T10:05:34.885Z,3324
2019-04-18T10:06:33.443Z,3336
2019-04-18T10:07:33.692Z,3392
2019-04-18T10:08:33.701Z,3416
2019-04-18T10:09:33.679Z,3408
2019-04-18T10:10:33.672Z,3412
2019-04-18T10:11:33.691Z,3416
2019-04-18T10:12:38.496Z,3400
2019-04-18T10:13:33.656Z,3360
2019-04-18T10:14:35.305Z,3344
2019-04-18T10:15:35.087Z,3336
2019-04-18T10:16:34.940Z,3308
2019-04-18T10:17:37.363Z,3276
2019-04-18T10:18:38.030Z,3260
2019-04-18T10:19:33.628Z,3280
2019-04-18T10:20:38.772Z,3280
2019-04-18T10:21:33.618Z,3272
2019-04-18T10:22:33.372Z,3284
2019-04-18T10:23:34.568Z,3344
2019-04-18T10:24:35.110Z,3380
2019-04-18T10:25:38.333Z,3392
2019-04-18T10:26:33.360Z,3392
2019-04-18T10:27:33.591Z,3380
2019-04-18T10:28:33.094Z,3376
2019-04-18T10:29:33.594Z,3364
2019-04-18T10:30:38.500Z,3368
2019-04-18T10:31:33.575Z,3360
2019-04-18T10:32:33.078Z,3348
2019-04-18T10:33:33.911Z,3340
2019-04-18T10:34:33.565Z,3344
2019-04-18T10:35:33.321Z,3360
2019-04-18T10:36:35.168Z,3360
2019-04-18T10:37:33.547Z,3368
2019-04-18T10:38:33.545Z,3368
2019-04-18T10:39:33.302Z,3360
2019-04-18T10:40:33.539Z,3332
2019-04-18T10:41:33.536Z,3308
2019-04-18T10:42:33.529Z,3288
2019-04-18T10:43:33.526Z,3280
2019-04-18T10:44:33.529Z,3272
2019-04-18T10:45:37.993Z,3256
2019-04-18T10:46:33.514Z,3264
2019-04-18T10:47:33.506Z,3276
2019-04-18T10:48:33.569Z,3264
2019-04-18T10:49:33.495Z,3280
2019-04-18T10:50:33.495Z,3264
2019-04-18T10:51:33.500Z,3248
2019-04-18T10:52:33.488Z,3228
2019-04-18T10:53:33.480Z,3220
2019-04-18T10:54:33.479Z,3228
2019-04-18T10:55:36.602Z,3224
2019-04-18T10:56:33.473Z,3216
2019-04-18T10:57:33.480Z,3208
2019-04-18T10:58:33.461Z,3172
2019-04-18T10:59:33.456Z,3144
2019-04-18T11:00:49.521Z,3128
2019-04-18T11:01:33.452Z,3116
2019-04-18T11:02:33.476Z,3120
2019-04-18T11:03:33.445Z,3076
2019-04-18T11:04:36.613Z,3040
2019-04-18T11:05:36.414Z,3048
2019-04-18T11:06:37.258Z,3032
2019-04-18T11:07:33.422Z,3036
2019-04-18T11:08:33.434Z,3012
2019-04-18T11:09:33.411Z,3000
2019-04-18T11:10:37.014Z,3000
2019-04-18T11:11:33.418Z,2996
2019-04-18T11:12:33.411Z,3000
2019-04-18T11:13:33.397Z,3012
2019-04-18T11:14:33.396Z,3020
2019-04-18T11:15:37.336Z,2992
2019-04-18T11:16:33.383Z,2996
2019-04-18T11:17:32.883Z,2992
2019-04-18T11:18:33.378Z,2964
2019-04-18T11:19:33.133Z,2960
2019-04-18T11:20:33.366Z,2944
2019-04-18T11:21:34.070Z,2948
2019-04-18T11:22:33.360Z,2940
2019-04-18T11:23:35.518Z,2924
2019-04-18T11:24:33.357Z,2900
2019-04-18T11:25:33.345Z,2912
2019-04-18T11:26:33.343Z,2912
2019-04-18T11:27:36.651Z,2920
2019-04-18T11:28:33.110Z,2936
2019-04-18T11:29:33.328Z,2928
2019-04-18T11:30:36.594Z,2900
2019-04-18T11:31:33.324Z,2856
2019-04-18T11:32:33.314Z,2844
2019-04-18T11:33:33.326Z,2852
2019-04-18T11:34:33.308Z,2860
2019-04-18T11:35:33.301Z,2864
2019-04-18T11:36:33.304Z,2864
2019-04-18T11:37:33.288Z,2852
2019-04-18T11:38:33.291Z,2848
2019-04-18T11:39:33.285Z,2848
2019-04-18T11:40:36.745Z,2852
2019-04-18T11:41:33.113Z,2856
2019-04-18T11:42:33.019Z,2840
2019-04-18T11:43:33.265Z,2832
2019-04-18T11:44:33.018Z,2816
2019-04-18T11:45:33.260Z,2816
2019-04-18T11:46:36.096Z,2816
2019-04-18T11:47:33.258Z,2808
2019-04-18T11:48:33.244Z,2812
2019-04-18T11:49:35.386Z,2828
2019-04-18T11:50:32.995Z,2808
2019-04-18T11:51:33.229Z,2804
2019-04-18T11:52:32.977Z,2792
2019-04-18T11:53:33.223Z,2784
2019-04-18T11:54:32.968Z,2788
2019-04-18T11:55:33.223Z,2784
2019-04-18T11:56:35.449Z,2780
2019-04-18T11:57:33.207Z,2772
2019-04-18T11:58:32.953Z,2780
2019-04-18T11:59:33.199Z,2792
2019-04-18T12:00:33.192Z,2792
2019-04-18T12:01:38.080Z,2788
2019-04-18T12:02:35.992Z,2796
2019-04-18T12:03:33.174Z,2808
2019-04-18T12:04:33.175Z,2808
2019-04-18T12:05:33.165Z,2804
2019-04-18T12:06:32.919Z,2820
2019-04-18T12:07:34.629Z,2836
2019-04-18T12:08:32.933Z,2852
2019-04-18T12:09:33.233Z,2856
2019-04-18T12:10:32.922Z,2852
2019-04-18T12:11:33.178Z,2844
2019-04-18T12:12:32.890Z,2836
2019-04-18T12:13:32.894Z,2824
2019-04-18T12:14:33.135Z,2820
2019-04-18T12:15:32.873Z,2816
2019-04-18T12:16:35.434Z,2816
2019-04-18T12:17:33.116Z,2816
2019-04-18T12:18:33.107Z,2800
2019-04-18T12:19:33.112Z,2788
2019-04-18T12:20:33.107Z,2776
2019-04-18T12:21:33.099Z,2780
2019-04-18T12:22:39.614Z,2784
2019-04-18T12:23:33.189Z,2776
2019-04-18T12:24:39.563Z,2772
2019-04-18T12:25:33.074Z,2764
2019-04-18T12:26:33.071Z,2772
2019-04-18T12:27:33.072Z,2768
2019-04-18T12:28:33.083Z,2760
2019-04-18T12:29:37.174Z,2764
2019-04-18T12:30:33.063Z,2776
2019-04-18T12:31:38.327Z,2788
2019-04-18T12:32:33.047Z,2796
2019-04-18T12:33:34.955Z,2808
2019-04-18T12:34:33.155Z,2812
2019-04-18T12:35:32.785Z,2828
2019-04-18T12:36:33.030Z,2844
2019-04-18T12:37:34.055Z,2852
2019-04-18T12:38:32.931Z,2844
2019-04-18T12:39:33.014Z,2824
2019-04-18T12:40:33.010Z,2796
2019-04-18T12:41:33.582Z,2772
2019-04-18T12:42:32.760Z,2748
2019-04-18T12:43:33.001Z,2716
2019-04-18T12:44:33.591Z,2700
2019-04-18T12:45:32.993Z,2696
2019-04-18T12:46:33.001Z,2692
2019-04-18T12:47:32.992Z,2680
2019-04-18T12:48:32.990Z,2676
2019-04-18T12:49:33.023Z,2668
2019-04-18T12:50:35.677Z,2660
2019-04-18T12:51:32.970Z,2664
2019-04-18T12:52:32.965Z,2652
2019-04-18T12:53:32.712Z,2664
2019-04-18T12:54:33.026Z,2680
2019-04-18T12:55:32.952Z,2688
2019-04-18T12:56:35.791Z,2692
2019-04-18T12:57:33.002Z,2700
2019-04-18T12:58:32.938Z,2696
2019-04-18T12:59:32.934Z,2684
2019-04-18T13:00:32.932Z,2680
2019-04-18T13:01:48.382Z,2672
2019-04-18T13:02:34.800Z,2664
2019-04-18T13:03:32.916Z,2652
2019-04-18T13:04:33.064Z,2640
2019-04-18T13:05:32.900Z,2632
2019-04-18T13:06:32.901Z,2620
2019-04-18T13:07:32.677Z,2624
2019-04-18T13:08:33.536Z,2644
2019-04-18T13:09:33.002Z,2648
2019-04-18T13:10:32.882Z,2644
2019-04-18T13:11:32.872Z,2652
2019-04-18T13:12:32.883Z,2652
2019-04-18T13:13:36.741Z,2640
2019-04-18T13:14:32.656Z,2628
2019-04-18T13:15:32.865Z,2608
2019-04-18T13:16:33.009Z,2600
2019-04-18T13:17:32.915Z,2588
2019-04-18T13:18:32.941Z,2584
2019-04-18T13:19:32.855Z,2584
2019-04-18T13:20:32.848Z,2576
2019-04-18T13:21:32.959Z,2588
2019-04-18T13:22:32.840Z,2600
2019-04-18T13:23:32.910Z,2604
2019-04-18T13:24:32.822Z,2612
2019-04-18T13:25:32.821Z,2616
2019-04-18T13:26:32.811Z,2616
2019-04-18T13:27:32.815Z,2612
2019-04-18T13:28:32.803Z,2600
2019-04-18T13:29:32.800Z,2592
2019-04-18T13:30:32.799Z,2588
2019-04-18T13:31:32.789Z,2588
2019-04-18T13:32:33.780Z,2588
2019-04-18T13:33:32.788Z,2580
2019-04-18T13:34:32.776Z,2572
2019-04-18T13:35:33.077Z,2572
2019-04-18T13:36:32.768Z,2592
2019-04-18T13:37:34.005Z,2592
2019-04-18T13:38:32.529Z,2596
2019-04-18T13:39:32.663Z,2604
2019-04-18T13:40:34.591Z,2608
2019-04-18T13:41:32.759Z,2620
2019-04-18T13:42:32.753Z,2624